createdAt,value
2018-05-29T00:00:44.474Z,0.00
2018-05-29T00:01:44.480Z,0.00
2018-05-29T00:02:44.481Z,0.00
2018-05-29T00:03:44.485Z,0.00
2018-05-29T00:04:44.491Z,0.00
2018-05-29T00:05:44.496Z,0.00
2018-05-29T00:06:44.505Z,0.00
2018-05-29T00:07:44.501Z,0.00
2018-05-29T00:08:44.505Z,0.00
2018-05-29T00:09:44.509Z,0.00
2018-05-29T00:10:44.516Z,0.00
2018-05-29T00:11:44.518Z,0.00
2018-05-29T00:12:44.523Z,0.00
2018-05-29T00:13:44.528Z,0.00
2018-05-29T00:14:44.531Z,0.00
2018-05-29T00:15:44.534Z,0.00
2018-05-29T00:16:44.538Z,0.00
2018-05-29T00:17:44.545Z,0.00
2018-05-29T00:18:44.548Z,0.00
2018-05-29T00:19:44.550Z,0.00
2018-05-29T00:20:44.557Z,0.00
2018-05-29T00:21:44.560Z,0.00
2018-05-29T00:22:44.565Z,0.00
2018-05-29T00:23:44.567Z,0.00
2018-05-29T00:24:44.571Z,0.00
2018-05-29T00:25:44.575Z,0.00
2018-05-29T00:26:44.579Z,0.00
2018-05-29T00:27:44.581Z,0.00
2018-05-29T00:28:44.588Z,0.00
2018-05-29T00:29:44.592Z,0.00
2018-05-29T00:30:44.593Z,0.00
2018-05-29T00:31:44.598Z,0.00
2018-05-29T00:32:44.606Z,0.00
2018-05-29T00:33:44.606Z,0.00
2018-05-29T00:34:44.612Z,0.00
2018-05-29T00:35:44.613Z,0.00
2018-05-29T00:36:44.619Z,0.00
2018-05-29T00:37:44.630Z,0.00
2018-05-29T00:38:44.629Z,0.00
2018-05-29T00:39:44.630Z,0.00
2018-05-29T00:40:44.632Z,0.00
2018-05-29T00:41:44.638Z,0.00
2018-05-29T00:42:44.642Z,0.00
2018-05-29T00:43:44.655Z,0.00
2018-05-29T00:44:44.649Z,0.00
2018-05-29T00:45:44.653Z,0.00
2018-05-29T00:46:44.657Z,0.00
2018-05-29T00:47:44.663Z,0.00
2018-05-29T00:48:44.665Z,0.00
2018-05-29T00:49:44.669Z,0.00
2018-05-29T00:50:44.671Z,0.00
2018-05-29T00:51:44.677Z,0.00
2018-05-29T00:52:44.679Z,0.00
2018-05-29T00:53:44.692Z,0.00
2018-05-29T00:54:44.690Z,0.00
2018-05-29T00:55:44.690Z,0.00
2018-05-29T00:56:44.694Z,0.00
2018-05-29T00:57:44.699Z,0.00
2018-05-29T00:58:44.703Z,0.00
2018-05-29T00:59:44.706Z,0.00
2018-05-29T01:00:44.710Z,0.00
2018-05-29T01:01:44.714Z,0.00
2018-05-29T01:02:44.717Z,0.00
2018-05-29T01:03:44.726Z,0.00
2018-05-29T01:04:44.729Z,0.00
2018-05-29T01:05:44.738Z,0.00
2018-05-29T01:06:44.733Z,0.00
2018-05-29T01:07:44.736Z,0.00
2018-05-29T01:08:44.740Z,0.00
2018-05-29T01:09:44.743Z,0.00
2018-05-29T01:10:44.752Z,0.00
2018-05-29T01:11:44.751Z,0.00
2018-05-29T01:12:44.809Z,0.00
2018-05-29T01:13:44.757Z,0.00
2018-05-29T01:14:44.763Z,0.00
2018-05-29T01:15:44.765Z,0.00
2018-05-29T01:16:44.772Z,0.00
2018-05-29T01:17:44.775Z,0.00
2018-05-29T01:18:44.777Z,0.00
2018-05-29T01:19:44.782Z,0.00
2018-05-29T01:20:44.784Z,0.00
2018-05-29T01:21:44.787Z,0.00
2018-05-29T01:22:44.791Z,0.00
2018-05-29T01:23:44.799Z,0.00
2018-05-29T01:24:44.799Z,0.00
2018-05-29T01:25:44.802Z,0.00
2018-05-29T01:26:44.806Z,0.00
2018-05-29T01:27:44.809Z,0.00
2018-05-29T01:28:44.818Z,0.00
2018-05-29T01:29:44.816Z,0.00
2018-05-29T01:30:44.823Z,0.00
2018-05-29T01:31:44.825Z,0.00
2018-05-29T01:32:44.827Z,0.00
2018-05-29T01:33:44.832Z,0.00
2018-05-29T01:34:44.838Z,0.00
2018-05-29T01:35:44.845Z,0.00
2018-05-29T01:36:44.844Z,0.00
2018-05-29T01:37:44.848Z,0.00
2018-05-29T01:38:44.849Z,0.00
2018-05-29T01:39:44.853Z,0.00
2018-05-29T01:40:44.860Z,0.00
2018-05-29T01:41:44.861Z,0.00
2018-05-29T01:42:44.865Z,0.00
2018-05-29T01:43:44.866Z,0.00
2018-05-29T01:44:44.871Z,0.00
2018-05-29T01:45:44.876Z,0.00
2018-05-29T01:46:44.878Z,0.00
2018-05-29T01:47:44.881Z,0.00
2018-05-29T01:48:44.886Z,0.00
2018-05-29T01:49:44.891Z,0.00
2018-05-29T01:50:44.892Z,0.00
2018-05-29T01:51:44.896Z,0.00
2018-05-29T01:52:44.899Z,0.00
2018-05-29T01:53:44.904Z,0.00
2018-05-29T01:54:44.913Z,0.00
2018-05-29T01:55:44.910Z,0.00
2018-05-29T01:56:44.913Z,0.00
2018-05-29T01:57:44.917Z,0.00
2018-05-29T01:58:44.925Z,0.00
2018-05-29T01:59:44.924Z,0.00
2018-05-29T02:00:44.927Z,0.00
2018-05-29T02:01:44.933Z,0.00
2018-05-29T02:02:44.935Z,0.00
2018-05-29T02:03:44.936Z,0.00
2018-05-29T02:04:44.941Z,0.00
2018-05-29T02:05:44.944Z,0.00
2018-05-29T02:06:44.948Z,0.00
2018-05-29T02:07:44.950Z,0.00
2018-05-29T02:08:44.971Z,0.00
2018-05-29T02:09:44.962Z,0.00
2018-05-29T02:10:44.962Z,0.00
2018-05-29T02:11:44.966Z,0.00
2018-05-29T02:12:44.968Z,0.00
2018-05-29T02:13:44.973Z,0.00
2018-05-29T02:14:44.996Z,0.00
2018-05-29T02:15:44.978Z,0.00
2018-05-29T02:16:44.983Z,0.00
2018-05-29T02:17:44.991Z,0.00
2018-05-29T02:18:44.989Z,0.00
2018-05-29T02:19:44.993Z,0.00
2018-05-29T02:20:44.998Z,0.00
2018-05-29T02:21:45.044Z,0.00
2018-05-29T02:22:45.003Z,0.00
2018-05-29T02:23:45.006Z,0.00
2018-05-29T02:24:45.010Z,0.00
2018-05-29T02:25:45.014Z,0.00
2018-05-29T02:26:45.017Z,0.00
2018-05-29T02:27:45.021Z,0.00
2018-05-29T02:28:45.023Z,0.00
2018-05-29T02:29:45.027Z,0.00
2018-05-29T02:30:45.031Z,0.00
2018-05-29T02:31:45.039Z,0.00
2018-05-29T02:32:45.043Z,0.00
2018-05-29T02:33:45.042Z,0.00
2018-05-29T02:34:45.057Z,0.00
2018-05-29T02:35:45.048Z,0.00
2018-05-29T02:36:45.056Z,0.00
2018-05-29T02:37:45.059Z,0.00
2018-05-29T02:38:45.059Z,0.00
2018-05-29T02:39:45.061Z,0.00
2018-05-29T02:40:45.065Z,0.00
2018-05-29T02:41:45.071Z,0.00
2018-05-29T02:42:45.072Z,0.00
2018-05-29T02:43:45.074Z,0.00
2018-05-29T02:44:45.088Z,0.00
2018-05-29T02:45:45.127Z,0.00
2018-05-29T02:46:45.086Z,0.00
2018-05-29T02:47:45.092Z,0.00
2018-05-29T02:48:45.093Z,0.00
2018-05-29T02:49:45.100Z,0.00
2018-05-29T02:50:45.103Z,0.00
2018-05-29T02:51:45.105Z,0.00
2018-05-29T02:52:45.106Z,0.00
2018-05-29T02:53:45.113Z,0.00
2018-05-29T02:54:45.113Z,0.00
2018-05-29T02:55:45.115Z,0.00
2018-05-29T02:56:45.119Z,0.00
2018-05-29T02:57:45.125Z,0.00
2018-05-29T02:58:45.173Z,0.00
2018-05-29T02:59:45.131Z,0.00
2018-05-29T03:00:45.133Z,0.00
2018-05-29T03:01:45.137Z,0.00
2018-05-29T03:02:45.141Z,0.00
2018-05-29T03:03:45.143Z,0.00
2018-05-29T03:04:45.148Z,0.00
2018-05-29T03:05:45.149Z,0.00
2018-05-29T03:06:45.153Z,0.00
2018-05-29T03:07:45.156Z,0.00
2018-05-29T03:08:45.159Z,0.00
2018-05-29T03:09:45.164Z,0.00
2018-05-29T03:10:45.168Z,0.00
2018-05-29T03:11:45.173Z,0.00
2018-05-29T03:12:45.174Z,0.00
2018-05-29T03:13:45.177Z,0.00
2018-05-29T03:14:45.181Z,0.00
2018-05-29T03:15:45.184Z,5.63
2018-05-29T03:16:45.200Z,5.63
2018-05-29T03:17:45.191Z,5.63
2018-05-29T03:18:45.236Z,5.63
2018-05-29T03:19:45.218Z,5.63
2018-05-29T03:20:45.206Z,5.63
2018-05-29T03:21:45.205Z,5.63
2018-05-29T03:22:45.210Z,5.63
2018-05-29T03:23:45.210Z,5.63
2018-05-29T03:24:45.213Z,5.63
2018-05-29T03:25:45.216Z,5.63
2018-05-29T03:26:45.224Z,5.63
2018-05-29T03:27:45.223Z,5.63
2018-05-29T03:28:45.228Z,11.25
2018-05-29T03:29:45.234Z,11.25
2018-05-29T03:30:45.235Z,11.25
2018-05-29T03:31:45.237Z,11.25
2018-05-29T03:32:45.247Z,11.25
2018-05-29T03:33:45.244Z,11.25
2018-05-29T03:34:45.252Z,11.25
2018-05-29T03:35:45.251Z,11.25
2018-05-29T03:36:45.253Z,11.25
2018-05-29T03:37:45.260Z,11.25
2018-05-29T03:38:45.261Z,16.88
2018-05-29T03:39:45.265Z,16.88
2018-05-29T03:40:45.269Z,16.88
2018-05-29T03:41:45.272Z,16.88
2018-05-29T03:42:45.274Z,16.88
2018-05-29T03:43:45.279Z,16.88
2018-05-29T03:44:45.280Z,16.88
2018-05-29T03:45:45.283Z,22.50
2018-05-29T03:46:45.291Z,22.50
2018-05-29T03:47:45.290Z,22.50
2018-05-29T03:48:45.293Z,22.50
2018-05-29T03:49:45.297Z,22.50
2018-05-29T03:50:45.301Z,22.50
2018-05-29T03:51:45.304Z,22.50
2018-05-29T03:52:45.307Z,28.13
2018-05-29T03:53:45.317Z,28.13
2018-05-29T03:54:45.315Z,28.13
2018-05-29T03:55:45.317Z,28.13
2018-05-29T03:56:45.319Z,28.13
2018-05-29T03:57:45.323Z,28.13
2018-05-29T03:58:45.327Z,33.75
2018-05-29T03:59:45.331Z,33.75
2018-05-29T04:00:45.333Z,33.75
2018-05-29T04:01:45.337Z,33.75
2018-05-29T04:02:45.341Z,33.75
2018-05-29T04:03:45.344Z,39.38
2018-05-29T04:04:45.351Z,39.38
2018-05-29T04:05:45.358Z,39.38
2018-05-29T04:06:45.356Z,39.38
2018-05-29T04:07:45.357Z,39.38
2018-05-29T04:08:45.360Z,39.38
2018-05-29T04:09:45.365Z,45.00
2018-05-29T04:10:45.370Z,45.00
2018-05-29T04:11:45.371Z,45.00
2018-05-29T04:12:45.374Z,45.00
2018-05-29T04:13:45.377Z,45.00
2018-05-29T04:14:45.382Z,50.63
2018-05-29T04:15:45.394Z,50.63
2018-05-29T04:16:45.396Z,50.63
2018-05-29T04:17:45.394Z,50.63
2018-05-29T04:18:45.395Z,56.25
2018-05-29T04:19:45.398Z,56.25
2018-05-29T04:20:45.403Z,56.25
2018-05-29T04:21:45.407Z,56.25
2018-05-29T04:22:45.418Z,56.25
2018-05-29T04:23:45.416Z,56.25
2018-05-29T04:24:45.417Z,56.25
2018-05-29T04:25:45.420Z,56.25
2018-05-29T04:26:45.455Z,61.88
2018-05-29T04:27:45.425Z,61.88
2018-05-29T04:28:45.429Z,67.50
2018-05-29T04:29:45.434Z,67.50
2018-05-29T04:30:45.440Z,67.50
2018-05-29T04:31:45.440Z,73.13
2018-05-29T04:32:45.443Z,73.13
2018-05-29T04:33:45.446Z,73.13
2018-05-29T04:34:45.451Z,78.75
2018-05-29T04:35:45.455Z,78.75
2018-05-29T04:36:45.461Z,84.38
2018-05-29T04:37:45.462Z,84.38
2018-05-29T04:38:45.468Z,84.38
2018-05-29T04:39:45.468Z,90.00
2018-05-29T04:40:45.471Z,90.00
2018-05-29T04:41:45.481Z,95.63
2018-05-29T04:42:45.481Z,95.63
2018-05-29T04:43:45.497Z,95.63
2018-05-29T04:44:45.487Z,95.63
2018-05-29T04:45:45.490Z,101.25
2018-05-29T04:46:45.498Z,101.25
2018-05-29T04:47:45.504Z,101.25
2018-05-29T04:48:45.502Z,106.88
2018-05-29T04:49:45.533Z,106.88
2018-05-29T04:50:45.511Z,112.50
2018-05-29T04:51:45.513Z,112.50
2018-05-29T04:52:45.518Z,118.13
2018-05-29T04:53:45.521Z,118.13
2018-05-29T04:54:45.526Z,123.75
2018-05-29T04:55:45.531Z,123.75
2018-05-29T04:56:45.535Z,129.38
2018-05-29T04:57:45.543Z,129.38
2018-05-29T04:58:45.548Z,135.00
2018-05-29T04:59:45.546Z,135.00
2018-05-29T05:00:45.550Z,140.63
2018-05-29T05:01:45.554Z,140.63
2018-05-29T05:02:45.559Z,146.25
2018-05-29T05:03:45.679Z,146.25
2018-05-29T05:04:45.663Z,146.25
2018-05-29T05:05:47.137Z,146.25
2018-05-29T05:06:45.577Z,151.88
2018-05-29T05:07:45.611Z,157.50
2018-05-29T05:08:45.583Z,208.13
2018-05-29T05:09:45.588Z,337.50
2018-05-29T05:10:45.593Z,405.00
2018-05-29T05:11:45.596Z,331.88
2018-05-29T05:12:45.601Z,281.25
2018-05-29T05:13:45.623Z,219.38
2018-05-29T05:14:45.610Z,196.88
2018-05-29T05:15:45.614Z,298.13
2018-05-29T05:16:45.619Z,303.75
2018-05-29T05:17:45.624Z,208.13
2018-05-29T05:18:45.630Z,202.50
2018-05-29T05:19:45.634Z,230.63
2018-05-29T05:20:45.639Z,270.00
2018-05-29T05:21:45.644Z,393.75
2018-05-29T05:22:45.701Z,500.63
2018-05-29T05:23:45.677Z,455.63
2018-05-29T05:24:45.662Z,376.88
2018-05-29T05:25:45.667Z,343.13
2018-05-29T05:26:45.682Z,298.13
2018-05-29T05:27:45.674Z,236.25
2018-05-29T05:28:45.680Z,219.38
2018-05-29T05:29:45.688Z,264.38
2018-05-29T05:30:45.691Z,393.75
2018-05-29T05:31:45.696Z,461.25
2018-05-29T05:32:45.703Z,410.63
2018-05-29T05:33:45.709Z,461.25
2018-05-29T05:34:45.714Z,427.50
2018-05-29T05:35:45.722Z,286.88
2018-05-29T05:36:45.726Z,236.25
2018-05-29T05:37:45.732Z,219.38
2018-05-29T05:38:45.738Z,219.38
2018-05-29T05:39:45.744Z,225.00
2018-05-29T05:40:45.759Z,219.38
2018-05-29T05:41:45.755Z,225.00
2018-05-29T05:42:45.770Z,225.00
2018-05-29T05:43:45.767Z,225.00
2018-05-29T05:44:45.771Z,225.00
2018-05-29T05:45:45.777Z,230.63
2018-05-29T05:46:45.784Z,225.00
2018-05-29T05:47:45.789Z,230.63
2018-05-29T05:48:45.794Z,230.63
2018-05-29T05:49:45.801Z,230.63
2018-05-29T05:50:45.807Z,230.63
2018-05-29T05:51:45.812Z,241.88
2018-05-29T05:52:45.861Z,298.13
2018-05-29T05:53:45.823Z,410.63
2018-05-29T05:54:45.829Z,511.88
2018-05-29T05:55:45.881Z,523.13
2018-05-29T05:56:45.845Z,461.25
2018-05-29T05:57:45.847Z,405.00
2018-05-29T05:58:45.855Z,337.50
2018-05-29T05:59:45.858Z,258.75
2018-05-29T06:00:45.867Z,236.25
2018-05-29T06:01:45.871Z,236.25
2018-05-29T06:02:45.876Z,230.63
2018-05-29T06:03:45.883Z,230.63
2018-05-29T06:04:45.888Z,236.25
2018-05-29T06:05:45.894Z,236.25
2018-05-29T06:06:45.901Z,236.25
2018-05-29T06:07:45.906Z,230.63
2018-05-29T06:08:45.910Z,241.88
2018-05-29T06:09:45.918Z,253.13
2018-05-29T06:10:45.922Z,230.63
2018-05-29T06:11:45.929Z,230.63
2018-05-29T06:12:45.937Z,230.63
2018-05-29T06:13:45.942Z,236.25
2018-05-29T06:14:45.950Z,236.25
2018-05-29T06:15:45.952Z,230.63
2018-05-29T06:16:45.957Z,225.00
2018-05-29T06:17:45.963Z,225.00
2018-05-29T06:18:45.969Z,225.00
2018-05-29T06:19:45.982Z,225.00
2018-05-29T06:20:45.980Z,225.00
2018-05-29T06:21:45.987Z,225.00
2018-05-29T06:22:45.991Z,225.00
2018-05-29T06:23:45.998Z,219.38
2018-05-29T06:24:46.001Z,213.75
2018-05-29T06:25:46.008Z,219.38
2018-05-29T06:26:46.014Z,219.38
2018-05-29T06:27:46.132Z,219.38
2018-05-29T06:28:46.157Z,213.75
2018-05-29T06:29:46.134Z,219.38
2018-05-29T06:30:46.041Z,219.38
2018-05-29T06:31:46.042Z,219.38
2018-05-29T06:32:46.093Z,213.75
2018-05-29T06:33:46.062Z,213.75
2018-05-29T06:34:46.061Z,208.13
2018-05-29T06:35:46.064Z,208.13
2018-05-29T06:36:46.070Z,208.13
2018-05-29T06:37:46.081Z,208.13
2018-05-29T06:38:46.175Z,202.50
2018-05-29T06:39:46.192Z,202.50
2018-05-29T06:40:46.201Z,196.88
2018-05-29T06:41:46.099Z,196.88
2018-05-29T06:42:46.159Z,191.25
2018-05-29T06:43:46.109Z,191.25
2018-05-29T06:44:46.115Z,185.63
2018-05-29T06:45:46.120Z,191.25
2018-05-29T06:46:46.380Z,180.00
2018-05-29T06:47:46.131Z,174.38
2018-05-29T06:48:46.138Z,180.00
2018-05-29T06:49:46.142Z,174.38
2018-05-29T06:50:46.148Z,168.75
2018-05-29T06:51:46.161Z,163.13
2018-05-29T06:52:46.462Z,157.50
2018-05-29T06:53:46.165Z,146.25
2018-05-29T06:54:46.174Z,140.63
2018-05-29T06:55:46.177Z,129.38
2018-05-29T06:56:47.767Z,123.75
2018-05-29T06:57:46.214Z,123.75
2018-05-29T06:58:46.222Z,118.13
2018-05-29T06:59:46.202Z,112.50
2018-05-29T07:00:46.202Z,106.88
2018-05-29T07:01:46.207Z,106.88
2018-05-29T07:02:46.219Z,101.25
2018-05-29T07:03:46.218Z,101.25
2018-05-29T07:04:46.240Z,101.25
2018-05-29T07:05:46.230Z,101.25
2018-05-29T07:06:46.235Z,101.25
2018-05-29T07:07:46.239Z,101.25
2018-05-29T07:08:46.260Z,101.25
2018-05-29T07:09:46.253Z,101.25
2018-05-29T07:10:46.255Z,101.25
2018-05-29T07:11:46.266Z,101.25
2018-05-29T07:12:46.316Z,101.25
2018-05-29T07:13:46.750Z,101.25
2018-05-29T07:14:46.524Z,101.25
2018-05-29T07:15:46.386Z,101.25
2018-05-29T07:16:46.286Z,101.25
2018-05-29T07:17:46.353Z,101.25
2018-05-29T07:18:46.302Z,101.25
2018-05-29T07:19:46.304Z,101.25
2018-05-29T07:20:46.312Z,101.25
2018-05-29T07:21:46.313Z,101.25
2018-05-29T07:22:46.319Z,101.25
2018-05-29T07:23:46.326Z,101.25
2018-05-29T07:24:46.384Z,101.25
2018-05-29T07:25:46.332Z,101.25
2018-05-29T07:26:46.338Z,101.25
2018-05-29T07:27:46.344Z,101.25
2018-05-29T07:28:46.353Z,101.25
2018-05-29T07:29:46.356Z,101.25
2018-05-29T07:30:46.361Z,101.25
2018-05-29T07:31:46.369Z,101.25
2018-05-29T07:32:46.373Z,101.25
2018-05-29T07:33:46.658Z,101.25
2018-05-29T07:34:47.141Z,101.25
2018-05-29T07:35:46.387Z,101.25
2018-05-29T07:36:46.392Z,101.25
2018-05-29T07:37:46.398Z,101.25
2018-05-29T07:38:46.402Z,101.25
2018-05-29T07:39:46.412Z,101.25
2018-05-29T07:40:46.424Z,101.25
2018-05-29T07:41:46.419Z,101.25
2018-05-29T07:42:46.425Z,101.25
2018-05-29T07:43:46.441Z,101.25
2018-05-29T07:44:46.435Z,101.25
2018-05-29T07:45:46.440Z,101.25
2018-05-29T07:46:46.446Z,101.25
2018-05-29T07:47:47.183Z,101.25
2018-05-29T07:48:47.238Z,101.25
2018-05-29T07:49:46.466Z,101.25
2018-05-29T07:50:46.471Z,101.25
2018-05-29T07:51:46.473Z,101.25
2018-05-29T07:52:46.477Z,101.25
2018-05-29T07:53:46.495Z,101.25
2018-05-29T07:54:46.492Z,101.25
2018-05-29T07:55:46.685Z,106.88
2018-05-29T07:56:46.499Z,101.25
2018-05-29T07:57:46.507Z,101.25
2018-05-29T07:58:46.554Z,106.88
2018-05-29T07:59:46.517Z,106.88
2018-05-29T08:00:46.524Z,101.25
2018-05-29T08:01:46.969Z,101.25
2018-05-29T08:02:46.574Z,106.88
2018-05-29T08:03:46.538Z,106.88
2018-05-29T08:04:46.541Z,106.88
2018-05-29T08:05:46.551Z,106.88
2018-05-29T08:06:46.556Z,106.88
2018-05-29T08:07:46.577Z,106.88
2018-05-29T08:08:46.568Z,106.88
2018-05-29T08:09:46.817Z,106.88
2018-05-29T08:10:46.579Z,106.88
2018-05-29T08:11:46.582Z,106.88
2018-05-29T08:12:46.585Z,106.88
2018-05-29T08:13:46.592Z,106.88
2018-05-29T08:14:46.598Z,106.88
2018-05-29T08:15:46.601Z,112.50
2018-05-29T08:16:46.621Z,112.50
2018-05-29T08:17:46.614Z,112.50
2018-05-29T08:18:46.620Z,112.50
2018-05-29T08:19:46.626Z,112.50
2018-05-29T08:20:46.736Z,112.50
2018-05-29T08:21:46.635Z,112.50
2018-05-29T08:22:46.665Z,112.50
2018-05-29T08:23:46.646Z,118.13
2018-05-29T08:24:46.661Z,118.13
2018-05-29T08:25:46.659Z,118.13
2018-05-29T08:26:46.673Z,118.13
2018-05-29T08:27:46.733Z,118.13
2018-05-29T08:28:46.816Z,118.13
2018-05-29T08:29:46.681Z,123.75
2018-05-29T08:30:46.686Z,123.75
2018-05-29T08:31:46.694Z,191.25
2018-05-29T08:32:46.699Z,275.63
2018-05-29T08:33:46.702Z,326.25
2018-05-29T08:34:46.721Z,331.88
2018-05-29T08:35:46.715Z,343.13
2018-05-29T08:36:46.719Z,348.75
2018-05-29T08:37:46.727Z,360.00
2018-05-29T08:38:46.735Z,365.63
2018-05-29T08:39:46.938Z,376.88
2018-05-29T08:40:46.791Z,393.75
2018-05-29T08:41:46.753Z,393.75
2018-05-29T08:42:46.766Z,399.38
2018-05-29T08:43:46.765Z,399.38
2018-05-29T08:44:46.772Z,405.00
2018-05-29T08:45:46.794Z,405.00
2018-05-29T08:46:46.788Z,410.63
2018-05-29T08:47:46.796Z,416.25
2018-05-29T08:48:46.983Z,416.25
2018-05-29T08:49:46.816Z,427.50
2018-05-29T08:50:46.821Z,438.75
2018-05-29T08:51:46.869Z,461.25
2018-05-29T08:52:46.850Z,478.13
2018-05-29T08:53:46.847Z,500.63
2018-05-29T08:54:47.158Z,517.50
2018-05-29T08:55:46.864Z,540.00
2018-05-29T08:56:46.918Z,534.38
2018-05-29T08:57:47.087Z,545.63
2018-05-29T08:58:46.893Z,551.25
2018-05-29T08:59:46.901Z,562.50
2018-05-29T09:00:46.912Z,568.13
2018-05-29T09:01:46.921Z,579.38
2018-05-29T09:02:46.935Z,590.63
2018-05-29T09:03:46.942Z,601.88
2018-05-29T09:04:46.949Z,618.75
2018-05-29T09:05:47.675Z,635.63
2018-05-29T09:06:46.971Z,652.50
2018-05-29T09:07:47.675Z,669.38
2018-05-29T09:08:47.950Z,675.00
2018-05-29T09:09:47.183Z,680.63
2018-05-29T09:10:47.154Z,686.25
2018-05-29T09:11:47.050Z,703.13
2018-05-29T09:12:47.034Z,714.38
2018-05-29T09:13:47.047Z,725.63
2018-05-29T09:14:47.968Z,736.88
2018-05-29T09:15:47.068Z,748.13
2018-05-29T09:16:47.079Z,759.38
2018-05-29T09:17:47.089Z,770.63
2018-05-29T09:18:47.101Z,781.88
2018-05-29T09:19:47.109Z,787.50
2018-05-29T09:20:47.120Z,787.50
2018-05-29T09:21:47.131Z,793.13
2018-05-29T09:22:47.143Z,826.88
2018-05-29T09:23:47.160Z,843.75
2018-05-29T09:24:47.164Z,860.63
2018-05-29T09:25:47.180Z,860.63
2018-05-29T09:26:47.223Z,860.63
2018-05-29T09:27:47.200Z,855.00
2018-05-29T09:28:47.276Z,849.38
2018-05-29T09:29:47.315Z,832.50
2018-05-29T09:30:47.351Z,821.25
2018-05-29T09:31:47.253Z,832.50
2018-05-29T09:32:47.267Z,877.50
2018-05-29T09:33:47.279Z,883.13
2018-05-29T09:34:47.282Z,894.38
2018-05-29T09:35:47.297Z,928.13
2018-05-29T09:36:47.439Z,967.50
2018-05-29T09:37:47.446Z,978.75
2018-05-29T09:38:47.331Z,990.00
2018-05-29T09:39:47.343Z,1018.13
2018-05-29T09:40:47.360Z,1023.75
2018-05-29T09:41:47.434Z,1029.38
2018-05-29T09:42:47.376Z,1001.25
2018-05-29T09:43:47.387Z,1012.50
2018-05-29T09:44:47.772Z,1035.00
2018-05-29T09:45:47.480Z,1051.88
2018-05-29T09:46:47.460Z,1080.00
2018-05-29T09:47:47.452Z,1068.75
2018-05-29T09:48:47.449Z,1074.38
2018-05-29T09:49:47.463Z,1102.50
2018-05-29T09:50:47.575Z,1136.25
2018-05-29T09:51:47.503Z,1153.13
2018-05-29T09:52:47.510Z,1158.75
2018-05-29T09:53:47.514Z,1164.38
2018-05-29T09:54:47.528Z,1170.00
2018-05-29T09:55:47.538Z,1170.00
2018-05-29T09:56:47.549Z,1192.50
2018-05-29T09:57:47.562Z,1130.63
2018-05-29T09:58:47.583Z,1130.63
2018-05-29T09:59:47.588Z,1074.38
2018-05-29T10:00:48.214Z,1068.75
2018-05-29T10:01:47.617Z,1035.00
2018-05-29T10:02:47.646Z,1001.25
2018-05-29T10:03:47.662Z,984.38
2018-05-29T10:04:47.661Z,945.00
2018-05-29T10:05:47.665Z,928.13
2018-05-29T10:06:47.686Z,922.50
2018-05-29T10:07:48.086Z,922.50
2018-05-29T10:08:47.811Z,961.88
2018-05-29T10:09:47.724Z,1018.13
2018-05-29T10:10:47.736Z,1096.88
2018-05-29T10:11:47.749Z,1158.75
2018-05-29T10:12:47.768Z,1175.63
2018-05-29T10:13:47.785Z,1192.50
2018-05-29T10:14:47.839Z,1170.00
2018-05-29T10:15:47.823Z,1125.00
2018-05-29T10:16:47.821Z,1074.38
2018-05-29T10:17:47.838Z,1035.00
2018-05-29T10:18:47.856Z,1023.75
2018-05-29T10:19:47.867Z,1023.75
2018-05-29T10:20:47.884Z,1046.25
2018-05-29T10:21:47.898Z,1091.25
2018-05-29T10:22:47.928Z,1136.25
2018-05-29T10:23:47.926Z,1203.75
2018-05-29T10:24:47.943Z,1237.50
2018-05-29T10:25:47.967Z,1254.38
2018-05-29T10:26:47.977Z,1237.50
2018-05-29T10:27:47.992Z,202.50
2018-05-29T10:28:48.044Z,146.25
2018-05-29T10:29:48.020Z,202.50
2018-05-29T10:30:48.135Z,1125.00
2018-05-29T10:31:48.069Z,1310.63
2018-05-29T10:32:48.069Z,1231.88
2018-05-29T10:33:48.094Z,1423.13
2018-05-29T10:34:48.095Z,1501.88
2018-05-29T10:35:48.114Z,1530.00
2018-05-29T10:36:48.149Z,1490.63
2018-05-29T10:37:48.287Z,1445.63
2018-05-29T10:38:48.166Z,1395.00
2018-05-29T10:39:48.168Z,517.50
2018-05-29T10:40:48.184Z,1406.25
2018-05-29T10:41:48.197Z,1445.63
2018-05-29T10:42:48.222Z,1462.50
2018-05-29T10:43:48.227Z,1462.50
2018-05-29T10:44:48.240Z,1490.63
2018-05-29T10:45:48.276Z,1479.38
2018-05-29T10:46:48.551Z,1501.88
2018-05-29T10:47:48.364Z,1485.00
2018-05-29T10:48:48.454Z,1518.75
2018-05-29T10:49:48.316Z,1563.75
2018-05-29T10:50:48.331Z,1501.88
2018-05-29T10:51:48.347Z,1501.88
2018-05-29T10:52:48.365Z,500.63
2018-05-29T10:53:48.397Z,219.38
2018-05-29T10:54:48.392Z,208.13
2018-05-29T10:55:48.409Z,180.00
2018-05-29T10:56:48.422Z,208.13
2018-05-29T10:57:48.437Z,798.75
2018-05-29T10:58:48.451Z,1333.13
2018-05-29T10:59:48.465Z,286.88
2018-05-29T11:00:48.486Z,1535.63
2018-05-29T11:01:48.495Z,1490.63
2018-05-29T11:02:48.509Z,1541.25
2018-05-29T11:03:48.523Z,1586.25
2018-05-29T11:04:48.534Z,1597.50
2018-05-29T11:05:48.699Z,1597.50
2018-05-29T11:06:48.587Z,1535.63
2018-05-29T11:07:48.579Z,1575.00
2018-05-29T11:08:48.593Z,1631.25
2018-05-29T11:09:48.682Z,1597.50
2018-05-29T11:10:48.624Z,1586.25
2018-05-29T11:11:48.746Z,1586.25
2018-05-29T11:12:48.679Z,1665.00
2018-05-29T11:13:48.692Z,1653.75
2018-05-29T11:14:48.680Z,1681.88
2018-05-29T11:15:48.693Z,765.00
2018-05-29T11:16:48.708Z,1558.13
2018-05-29T11:17:48.733Z,1676.25
2018-05-29T11:18:48.740Z,1698.75
2018-05-29T11:19:48.899Z,1670.63
2018-05-29T11:20:48.775Z,1642.50
2018-05-29T11:21:48.791Z,1603.13
2018-05-29T11:22:48.832Z,1636.88
2018-05-29T11:23:48.819Z,1620.00
2018-05-29T11:24:48.836Z,1687.50
2018-05-29T11:25:48.853Z,1676.25
2018-05-29T11:26:48.872Z,1625.63
2018-05-29T11:27:48.886Z,1760.63
2018-05-29T11:28:49.752Z,675.00
2018-05-29T11:29:48.919Z,1738.13
2018-05-29T11:30:48.935Z,1710.00
2018-05-29T11:31:48.973Z,1726.88
2018-05-29T11:32:49.181Z,1766.25
2018-05-29T11:33:48.990Z,1755.00
2018-05-29T11:34:49.001Z,1755.00
2018-05-29T11:35:49.103Z,1710.00
2018-05-29T11:36:49.136Z,1676.25
2018-05-29T11:37:49.064Z,1603.13
2018-05-29T11:38:49.324Z,1653.75
2018-05-29T11:39:49.199Z,1676.25
2018-05-29T11:40:49.106Z,1580.63
2018-05-29T11:41:49.124Z,1603.13
2018-05-29T11:42:49.140Z,1687.50
2018-05-29T11:43:49.183Z,1738.13
2018-05-29T11:44:49.179Z,1738.13
2018-05-29T11:45:49.206Z,1732.50
2018-05-29T11:46:49.215Z,1676.25
2018-05-29T11:47:49.260Z,1625.63
2018-05-29T11:48:49.279Z,1631.25
2018-05-29T11:49:49.272Z,1597.50
2018-05-29T11:50:49.301Z,1597.50
2018-05-29T11:51:49.303Z,1631.25
2018-05-29T11:52:49.332Z,1693.13
2018-05-29T11:53:50.796Z,1721.25
2018-05-29T11:54:50.985Z,1721.25
2018-05-29T11:55:50.264Z,1822.50
2018-05-29T11:56:49.398Z,1822.50
2018-05-29T11:57:49.421Z,1822.50
2018-05-29T11:58:49.459Z,1771.88
2018-05-29T11:59:49.450Z,1698.75
2018-05-29T12:00:49.474Z,1681.88
2018-05-29T12:01:49.549Z,1642.50
2018-05-29T12:02:49.507Z,1760.63
2018-05-29T12:03:49.526Z,1805.63
2018-05-29T12:04:49.617Z,1822.50
2018-05-29T12:05:49.584Z,1794.38
2018-05-29T12:06:49.584Z,1794.38
2018-05-29T12:07:49.600Z,1749.38
2018-05-29T12:08:49.624Z,1715.63
2018-05-29T12:09:49.637Z,281.25
2018-05-29T12:10:49.677Z,1141.88
2018-05-29T12:11:49.684Z,1001.25
2018-05-29T12:12:49.726Z,1642.50
2018-05-29T12:13:49.712Z,236.25
2018-05-29T12:14:49.904Z,461.25
2018-05-29T12:15:49.768Z,180.00
2018-05-29T12:16:49.759Z,1546.88
2018-05-29T12:17:49.779Z,1676.25
2018-05-29T12:18:49.790Z,1726.88
2018-05-29T12:19:49.805Z,1642.50
2018-05-29T12:20:50.061Z,416.25
2018-05-29T12:21:49.835Z,1721.25
2018-05-29T12:22:49.850Z,1771.88
2018-05-29T12:23:49.864Z,1738.13
2018-05-29T12:24:50.024Z,1732.50
2018-05-29T12:25:49.894Z,1676.25
2018-05-29T12:26:49.911Z,365.63
2018-05-29T12:27:49.927Z,1535.63
2018-05-29T12:28:49.942Z,1080.00
2018-05-29T12:29:49.968Z,556.88
2018-05-29T12:30:49.974Z,1676.25
2018-05-29T12:31:49.989Z,1518.75
2018-05-29T12:32:50.469Z,1749.38
2018-05-29T12:33:50.024Z,1760.63
2018-05-29T12:34:50.035Z,1597.50
2018-05-29T12:35:50.070Z,1732.50
2018-05-29T12:36:50.065Z,241.88
2018-05-29T12:37:50.137Z,208.13
2018-05-29T12:38:50.786Z,213.75
2018-05-29T12:39:50.112Z,1338.75